sensor_id;sensor_type;location;lat;lon;timestamp;P1;durP1;ratioP1;P2;durP2;ratioP2
13832;SDS011;6987;19.472;-99.276;2023-11-19T00:00:35;3.60;;;1.83;;
13832;SDS011;6987;19.472;-99.276;2023-11-19T00:03:04;3.00;;;1.80;;
13832;SDS011;6987;19.472;-99.276;2023-11-19T00:05:34;3.20;;;2.67;;
13832;SDS011;6987;19.472;-99.276;2023-11-19T00:08:03;6.75;;;2.70;;
13832;SDS011;6987;19.472;-99.276;2023-11-19T00:10:34;2.47;;;2.35;;
13832;SDS011;6987;19.472;-99.276;2023-11-19T00:13:03;6.22;;;2.78;;
13832;SDS011;6987;19.472;-99.276;2023-11-19T00:15:32;3.58;;;3.25;;
13832;SDS011;6987;19.472;-99.276;2023-11-19T00:18:04;9.70;;;3.42;;
13832;SDS011;6987;19.472;-99.276;2023-11-19T00:20:34;10.23;;;3.53;;
13832;SDS011;6987;19.472;-99.276;2023-11-19T00:23:03;3.45;;;3.15;;
13832;SDS011;6987;19.472;-99.276;2023-11-19T00:25:33;5.55;;;2.65;;
13832;SDS011;6987;19.472;-99.276;2023-11-19T00:28:04;6.55;;;2.78;;
13832;SDS011;6987;19.472;-99.276;2023-11-19T00:30:35;5.28;;;3.00;;
13832;SDS011;6987;19.472;-99.276;2023-11-19T00:33:04;8.13;;;3.53;;
13832;SDS011;6987;19.472;-99.276;2023-11-19T00:35:34;6.28;;;3.08;;
13832;SDS011;6987;19.472;-99.276;2023-11-19T00:38:03;5.18;;;3.20;;
13832;SDS011;6987;19.472;-99.276;2023-11-19T00:40:33;2.88;;;2.67;;
13832;SDS011;6987;19.472;-99.276;2023-11-19T00:43:02;3.47;;;3.20;;
13832;SDS011;6987;19.472;-99.276;2023-11-19T00:45:31;10.27;;;3.25;;
13832;SDS011;6987;19.472;-99.276;2023-11-19T00:48:02;5.28;;;2.90;;
13832;SDS011;6987;19.472;-99.276;2023-11-19T00:50:32;5.65;;;3.50;;
13832;SDS011;6987;19.472;-99.276;2023-11-19T00:53:01;5.88;;;2.85;;
13832;SDS011;6987;19.472;-99.276;2023-11-19T00:55:31;7.25;;;3.30;;
13832;SDS011;6987;19.472;-99.276;2023-11-19T00:58:00;3.15;;;2.72;;
13832;SDS011;6987;19.472;-99.276;2023-11-19T01:00:29;4.25;;;2.90;;
13832;SDS011;6987;19.472;-99.276;2023-11-19T01:02:59;3.08;;;2.75;;
13832;SDS011;6987;19.472;-99.276;2023-11-19T01:05:30;4.55;;;2.63;;
13832;SDS011;6987;19.472;-99.276;2023-11-19T01:07:59;17.08;;;4.53;;
13832;SDS011;6987;19.472;-99.276;2023-11-19T01:10:30;14.65;;;4.10;;
13832;SDS011;6987;19.472;-99.276;2023-11-19T01:12:59;15.93;;;4.82;;
13832;SDS011;6987;19.472;-99.276;2023-11-19T01:15:31;14.68;;;6.55;;
13832;SDS011;6987;19.472;-99.276;2023-11-19T01:18:00;12.77;;;6.97;;
13832;SDS011;6987;19.472;-99.276;2023-11-19T01:20:32;15.35;;;5.57;;
13832;SDS011;6987;19.472;-99.276;2023-11-19T01:23:01;10.13;;;4.93;;
13832;SDS011;6987;19.472;-99.276;2023-11-19T01:25:31;26.30;;;5.07;;
13832;SDS011;6987;19.472;-99.276;2023-11-19T01:28:01;19.20;;;4.10;;
13832;SDS011;6987;19.472;-99.276;2023-11-19T01:30:30;9.63;;;4.20;;
13832;SDS011;6987;19.472;-99.276;2023-11-19T01:32:59;16.00;;;4.95;;
13832;SDS011;6987;19.472;-99.276;2023-11-19T01:35:29;14.75;;;4.40;;
13832;SDS011;6987;19.472;-99.276;2023-11-19T01:38:00;16.45;;;4.90;;
13832;SDS011;6987;19.472;-99.276;2023-11-19T01:40:29;9.52;;;3.85;;
13832;SDS011;6987;19.472;-99.276;2023-11-19T01:42:58;9.18;;;3.85;;
13832;SDS011;6987;19.472;-99.276;2023-11-19T01:45:28;6.78;;;3.47;;
13832;SDS011;6987;19.472;-99.276;2023-11-19T01:47:58;10.82;;;4.13;;
13832;SDS011;6987;19.472;-99.276;2023-11-19T01:50:31;18.88;;;4.57;;
13832;SDS011;6987;19.472;-99.276;2023-11-19T01:53:03;17.92;;;4.43;;
13832;SDS011;6987;19.472;-99.276;2023-11-19T01:55:32;11.40;;;3.90;;
13832;SDS011;6987;19.472;-99.276;2023-11-19T01:58:01;11.23;;;3.80;;
13832;SDS011;6987;19.472;-99.276;2023-11-19T02:00:31;13.18;;;3.72;;
13832;SDS011;6987;19.472;-99.276;2023-11-19T02:03:00;10.80;;;4.55;;
13832;SDS011;6987;19.472;-99.276;2023-11-19T02:05:32;9.95;;;4.13;;
13832;SDS011;6987;19.472;-99.276;2023-11-19T02:08:03;11.77;;;4.55;;
13832;SDS011;6987;19.472;-99.276;2023-11-19T02:10:32;11.35;;;4.18;;
13832;SDS011;6987;19.472;-99.276;2023-11-19T02:13:01;11.70;;;3.92;;
13832;SDS011;6987;19.472;-99.276;2023-11-19T02:15:32;11.13;;;4.10;;
13832;SDS011;6987;19.472;-99.276;2023-11-19T02:18:17;15.57;;;4.30;;
13832;SDS011;6987;19.472;-99.276;2023-11-19T02:20:47;8.23;;;3.67;;
13832;SDS011;6987;19.472;-99.276;2023-11-19T02:23:19;14.35;;;4.30;;
13832;SDS011;6987;19.472;-99.276;2023-11-19T02:25:54;13.18;;;4.75;;
13832;SDS011;6987;19.472;-99.276;2023-11-19T02:28:33;25.15;;;4.28;;
13832;SDS011;6987;19.472;-99.276;2023-11-19T02:31:03;14.98;;;4.43;;
13832;SDS011;6987;19.472;-99.276;2023-11-19T02:33:35;13.32;;;3.75;;
13832;SDS011;6987;19.472;-99.276;2023-11-19T02:36:04;14.93;;;3.78;;
13832;SDS011;6987;19.472;-99.276;2023-11-19T02:38:35;18.45;;;4.75;;
13832;SDS011;6987;19.472;-99.276;2023-11-19T02:41:04;10.98;;;3.78;;
13832;SDS011;6987;19.472;-99.276;2023-11-19T02:43:37;10.18;;;3.55;;
13832;SDS011;6987;19.472;-99.276;2023-11-19T02:46:06;22.65;;;3.83;;
13832;SDS011;6987;19.472;-99.276;2023-11-19T02:48:35;17.35;;;3.53;;
13832;SDS011;6987;19.472;-99.276;2023-11-19T02:51:04;10.18;;;3.72;;
13832;SDS011;6987;19.472;-99.276;2023-11-19T02:53:35;14.85;;;3.22;;
13832;SDS011;6987;19.472;-99.276;2023-11-19T02:56:05;16.90;;;3.88;;
13832;SDS011;6987;19.472;-99.276;2023-11-19T02:58:44;8.38;;;3.47;;
13832;SDS011;6987;19.472;-99.276;2023-11-19T03:01:20;9.25;;;3.25;;
13832;SDS011;6987;19.472;-99.276;2023-11-19T03:03:55;8.77;;;3.50;;
13832;SDS011;6987;19.472;-99.276;2023-11-19T03:06:26;9.95;;;3.40;;
13832;SDS011;6987;19.472;-99.276;2023-11-19T03:08:55;9.00;;;3.72;;
13832;SDS011;6987;19.472;-99.276;2023-11-19T03:11:29;21.88;;;3.67;;
13832;SDS011;6987;19.472;-99.276;2023-11-19T03:14:00;10.18;;;3.10;;
13832;SDS011;6987;19.472;-99.276;2023-11-19T03:16:29;2.70;;;2.50;;
13832;SDS011;6987;19.472;-99.276;2023-11-19T03:18:59;7.85;;;2.88;;
13832;SDS011;6987;19.472;-99.276;2023-11-19T03:21:29;6.00;;;3.17;;
13832;SDS011;6987;19.472;-99.276;2023-11-19T03:23:59;11.45;;;3.25;;
13832;SDS011;6987;19.472;-99.276;2023-11-19T03:26:29;7.78;;;2.80;;
13832;SDS011;6987;19.472;-99.276;2023-11-19T03:29:01;4.68;;;3.22;;
13832;SDS011;6987;19.472;-99.276;2023-11-19T03:31:30;4.95;;;2.72;;
13832;SDS011;6987;19.472;-99.276;2023-11-19T03:33:59;8.38;;;2.97;;
13832;SDS011;6987;19.472;-99.276;2023-11-19T03:36:31;12.07;;;3.90;;
13832;SDS011;6987;19.472;-99.276;2023-11-19T03:39:01;11.88;;;3.08;;
13832;SDS011;6987;19.472;-99.276;2023-11-19T03:41:30;8.00;;;2.83;;
13832;SDS011;6987;19.472;-99.276;2023-11-19T03:44:01;26.52;;;4.88;;
13832;SDS011;6987;19.472;-99.276;2023-11-19T03:46:31;56.03;;;6.30;;
13832;SDS011;6987;19.472;-99.276;2023-11-19T03:49:00;13.20;;;3.10;;
13832;SDS011;6987;19.472;-99.276;2023-11-19T03:51:31;8.43;;;3.13;;
13832;SDS011;6987;19.472;-99.276;2023-11-19T03:54:01;9.43;;;3.10;;
13832;SDS011;6987;19.472;-99.276;2023-11-19T03:56:32;23.60;;;3.70;;
13832;SDS011;6987;19.472;-99.276;2023-11-19T03:59:03;10.63;;;4.15;;
13832;SDS011;6987;19.472;-99.276;2023-11-19T04:01:33;7.28;;;3.30;;
13832;SDS011;6987;19.472;-99.276;2023-11-19T04:04:03;6.10;;;3.33;;
13832;SDS011;6987;19.472;-99.276;2023-11-19T04:06:32;12.68;;;3.40;;
13832;SDS011;6987;19.472;-99.276;2023-11-19T04:09:02;14.18;;;3.17;;
13832;SDS011;6987;19.472;-99.276;2023-11-19T04:11:32;7.80;;;3.33;;
13832;SDS011;6987;19.472;-99.276;2023-11-19T04:14:01;8.18;;;3.08;;
13832;SDS011;6987;19.472;-99.276;2023-11-19T04:16:32;23.88;;;3.80;;
13832;SDS011;6987;19.472;-99.276;2023-11-19T04:19:01;6.10;;;2.88;;
13832;SDS011;6987;19.472;-99.276;2023-11-19T04:21:30;5.25;;;2.78;;
13832;SDS011;6987;19.472;-99.276;2023-11-19T04:23:59;11.73;;;3.17;;
13832;SDS011;6987;19.472;-99.276;2023-11-19T04:26:28;7.18;;;3.20;;
13832;SDS011;6987;19.472;-99.276;2023-11-19T04:28:58;9.57;;;3.25;;
13832;SDS011;6987;19.472;-99.276;2023-11-19T04:31:30;7.25;;;2.97;;
13832;SDS011;6987;19.472;-99.276;2023-11-19T04:34:00;7.80;;;3.08;;
13832;SDS011;6987;19.472;-99.276;2023-11-19T04:36:29;26.58;;;4.38;;
13832;SDS011;6987;19.472;-99.276;2023-11-19T04:38:58;6.35;;;3.10;;
13832;SDS011;6987;19.472;-99.276;2023-11-19T04:41:28;10.45;;;3.53;;
13832;SDS011;6987;19.472;-99.276;2023-11-19T04:43:57;5.90;;;2.85;;
13832;SDS011;6987;19.472;-99.276;2023-11-19T04:46:26;5.50;;;2.90;;
13832;SDS011;6987;19.472;-99.276;2023-11-19T04:48:58;3.60;;;2.88;;
13832;SDS011;6987;19.472;-99.276;2023-11-19T04:51:27;7.60;;;3.10;;
13832;SDS011;6987;19.472;-99.276;2023-11-19T04:53:56;11.38;;;3.53;;
13832;SDS011;6987;19.472;-99.276;2023-11-19T04:56:25;8.35;;;2.70;;
13832;SDS011;6987;19.472;-99.276;2023-11-19T04:58:54;10.27;;;2.75;;
13832;SDS011;6987;19.472;-99.276;2023-11-19T05:01:23;5.78;;;3.45;;
13832;SDS011;6987;19.472;-99.276;2023-11-19T05:03:53;5.65;;;3.22;;
13832;SDS011;6987;19.472;-99.276;2023-11-19T05:06:27;3.72;;;2.72;;
13832;SDS011;6987;19.472;-99.276;2023-11-19T05:08:58;4.43;;;3.08;;
13832;SDS011;6987;19.472;-99.276;2023-11-19T05:11:30;7.07;;;2.78;;
13832;SDS011;6987;19.472;-99.276;2023-11-19T05:13:59;6.57;;;2.63;;
13832;SDS011;6987;19.472;-99.276;2023-11-19T05:16:31;6.82;;;2.50;;
13832;SDS011;6987;19.472;-99.276;2023-11-19T05:19:01;4.57;;;3.08;;
13832;SDS011;6987;19.472;-99.276;2023-11-19T05:21:32;5.85;;;2.95;;
13832;SDS011;6987;19.472;-99.276;2023-11-19T05:24:01;6.78;;;2.80;;
13832;SDS011;6987;19.472;-99.276;2023-11-19T05:26:31;5.60;;;3.05;;
13832;SDS011;6987;19.472;-99.276;2023-11-19T05:29:01;5.25;;;3.00;;
13832;SDS011;6987;19.472;-99.276;2023-11-19T05:31:30;6.22;;;3.22;;
13832;SDS011;6987;19.472;-99.276;2023-11-19T05:33:59;7.93;;;2.78;;
13832;SDS011;6987;19.472;-99.276;2023-11-19T05:36:28;7.25;;;2.97;;
13832;SDS011;6987;19.472;-99.276;2023-11-19T05:39:00;5.13;;;3.17;;
13832;SDS011;6987;19.472;-99.276;2023-11-19T05:41:29;7.60;;;2.92;;
13832;SDS011;6987;19.472;-99.276;2023-11-19T05:43:58;6.28;;;2.90;;
13832;SDS011;6987;19.472;-99.276;2023-11-19T05:46:28;7.63;;;2.80;;
13832;SDS011;6987;19.472;-99.276;2023-11-19T05:48:57;6.20;;;3.35;;
13832;SDS011;6987;19.472;-99.276;2023-11-19T05:51:26;7.53;;;3.70;;
13832;SDS011;6987;19.472;-99.276;2023-11-19T05:53:57;6.13;;;3.60;;
13832;SDS011;6987;19.472;-99.276;2023-11-19T05:56:26;8.52;;;3.83;;
13832;SDS011;6987;19.472;-99.276;2023-11-19T05:58:58;6.85;;;3.03;;
13832;SDS011;6987;19.472;-99.276;2023-11-19T06:01:29;5.40;;;2.97;;
13832;SDS011;6987;19.472;-99.276;2023-11-19T06:03:58;3.45;;;3.05;;
13832;SDS011;6987;19.472;-99.276;2023-11-19T06:06:28;8.65;;;2.90;;
13832;SDS011;6987;19.472;-99.276;2023-11-19T06:08:59;4.85;;;3.13;;
13832;SDS011;6987;19.472;-99.276;2023-11-19T06:11:32;10.38;;;3.13;;
13832;SDS011;6987;19.472;-99.276;2023-11-19T06:14:02;3.53;;;2.45;;
13832;SDS011;6987;19.472;-99.276;2023-11-19T06:16:31;5.70;;;2.72;;
13832;SDS011;6987;19.472;-99.276;2023-11-19T06:19:00;4.40;;;2.72;;
13832;SDS011;6987;19.472;-99.276;2023-11-19T06:21:30;7.45;;;2.70;;
13832;SDS011;6987;19.472;-99.276;2023-11-19T06:24:03;6.68;;;2.90;;
13832;SDS011;6987;19.472;-99.276;2023-11-19T06:26:33;6.38;;;2.97;;
13832;SDS011;6987;19.472;-99.276;2023-11-19T06:29:02;3.53;;;2.20;;
13832;SDS011;6987;19.472;-99.276;2023-11-19T06:31:31;9.88;;;2.40;;
13832;SDS011;6987;19.472;-99.276;2023-11-19T06:34:00;5.65;;;2.55;;
13832;SDS011;6987;19.472;-99.276;2023-11-19T06:36:29;8.18;;;2.45;;
13832;SDS011;6987;19.472;-99.276;2023-11-19T06:38:59;7.13;;;2.45;;
13832;SDS011;6987;19.472;-99.276;2023-11-19T06:41:31;8.13;;;2.80;;
13832;SDS011;6987;19.472;-99.276;2023-11-19T06:44:00;7.22;;;2.50;;
13832;SDS011;6987;19.472;-99.276;2023-11-19T06:46:31;3.65;;;2.15;;
13832;SDS011;6987;19.472;-99.276;2023-11-19T06:49:00;3.53;;;1.95;;
13832;SDS011;6987;19.472;-99.276;2023-11-19T06:51:30;5.55;;;2.22;;
13832;SDS011;6987;19.472;-99.276;2023-11-19T06:53:59;5.97;;;2.33;;
13832;SDS011;6987;19.472;-99.276;2023-11-19T06:56:28;5.93;;;2.28;;
13832;SDS011;6987;19.472;-99.276;2023-11-19T06:58:59;2.03;;;1.90;;
13832;SDS011;6987;19.472;-99.276;2023-11-19T07:01:28;5.40;;;2.03;;
13832;SDS011;6987;19.472;-99.276;2023-11-19T07:04:04;4.25;;;2.17;;
13832;SDS011;6987;19.472;-99.276;2023-11-19T07:06:36;6.47;;;1.83;;
13832;SDS011;6987;19.472;-99.276;2023-11-19T07:09:07;11.02;;;2.28;;
13832;SDS011;6987;19.472;-99.276;2023-11-19T07:11:38;7.05;;;2.20;;
13832;SDS011;6987;19.472;-99.276;2023-11-19T07:14:09;5.75;;;1.80;;
13832;SDS011;6987;19.472;-99.276;2023-11-19T07:16:39;9.73;;;2.03;;
13832;SDS011;6987;19.472;-99.276;2023-11-19T07:19:08;4.07;;;2.17;;
13832;SDS011;6987;19.472;-99.276;2023-11-19T07:21:40;4.63;;;1.77;;
13832;SDS011;6987;19.472;-99.276;2023-11-19T07:24:10;7.40;;;2.10;;
13832;SDS011;6987;19.472;-99.276;2023-11-19T07:26:42;6.68;;;2.10;;
13832;SDS011;6987;19.472;-99.276;2023-11-19T07:29:13;6.90;;;1.73;;
13832;SDS011;6987;19.472;-99.276;2023-11-19T07:31:42;4.05;;;2.30;;
13832;SDS011;6987;19.472;-99.276;2023-11-19T07:34:11;5.80;;;1.60;;
13832;SDS011;6987;19.472;-99.276;2023-11-19T07:36:40;5.15;;;1.58;;
13832;SDS011;6987;19.472;-99.276;2023-11-19T07:39:10;7.10;;;1.60;;
13832;SDS011;6987;19.472;-99.276;2023-11-19T07:41:40;3.78;;;1.55;;
13832;SDS011;6987;19.472;-99.276;2023-11-19T07:44:11;6.13;;;2.05;;
13832;SDS011;6987;19.472;-99.276;2023-11-19T07:46:40;7.68;;;2.00;;
13832;SDS011;6987;19.472;-99.276;2023-11-19T07:49:10;10.48;;;2.50;;
13832;SDS011;6987;19.472;-99.276;2023-11-19T07:51:39;6.32;;;1.52;;
13832;SDS011;6987;19.472;-99.276;2023-11-19T07:54:09;4.88;;;1.38;;
13832;SDS011;6987;19.472;-99.276;2023-11-19T07:56:39;5.78;;;1.70;;
13832;SDS011;6987;19.472;-99.276;2023-11-19T07:59:10;6.28;;;1.80;;
13832;SDS011;6987;19.472;-99.276;2023-11-19T08:01:39;5.70;;;1.35;;
13832;SDS011;6987;19.472;-99.276;2023-11-19T08:04:09;5.05;;;1.40;;
13832;SDS011;6987;19.472;-99.276;2023-11-19T08:06:38;5.60;;;1.88;;
13832;SDS011;6987;19.472;-99.276;2023-11-19T08:09:07;4.32;;;1.40;;
13832;SDS011;6987;19.472;-99.276;2023-11-19T08:11:39;3.08;;;1.70;;
13832;SDS011;6987;19.472;-99.276;2023-11-19T08:14:10;4.75;;;1.55;;
13832;SDS011;6987;19.472;-99.276;2023-11-19T08:16:42;3.63;;;1.50;;
13832;SDS011;6987;19.472;-99.276;2023-11-19T08:19:12;3.83;;;1.48;;
13832;SDS011;6987;19.472;-99.276;2023-11-19T08:21:41;2.17;;;1.40;;
13832;SDS011;6987;19.472;-99.276;2023-11-19T08:24:10;8.20;;;1.70;;
13832;SDS011;6987;19.472;-99.276;2023-11-19T08:26:39;3.88;;;1.45;;
13832;SDS011;6987;19.472;-99.276;2023-11-19T08:29:11;2.83;;;1.40;;
13832;SDS011;6987;19.472;-99.276;2023-11-19T08:31:42;9.07;;;1.40;;
13832;SDS011;6987;19.472;-99.276;2023-11-19T08:34:11;3.55;;;1.40;;
13832;SDS011;6987;19.472;-99.276;2023-11-19T08:36:41;3.22;;;1.38;;
13832;SDS011;6987;19.472;-99.276;2023-11-19T08:39:10;7.13;;;1.58;;
13832;SDS011;6987;19.472;-99.276;2023-11-19T08:41:39;1.33;;;1.20;;
13832;SDS011;6987;19.472;-99.276;2023-11-19T08:44:09;3.83;;;1.30;;
13832;SDS011;6987;19.472;-99.276;2023-11-19T08:46:46;4.25;;;1.40;;
13832;SDS011;6987;19.472;-99.276;2023-11-19T08:49:16;3.33;;;1.40;;
13832;SDS011;6987;19.472;-99.276;2023-11-19T08:51:45;3.55;;;1.23;;
13832;SDS011;6987;19.472;-99.276;2023-11-19T08:54:14;2.53;;;1.20;;
13832;SDS011;6987;19.472;-99.276;2023-11-19T08:56:45;3.67;;;1.50;;
13832;SDS011;6987;19.472;-99.276;2023-11-19T08:59:18;3.80;;;1.08;;
13832;SDS011;6987;19.472;-99.276;2023-11-19T09:01:47;3.55;;;1.40;;
13832;SDS011;6987;19.472;-99.276;2023-11-19T09:04:16;3.47;;;1.90;;
13832;SDS011;6987;19.472;-99.276;2023-11-19T09:06:48;2.83;;;1.25;;
13832;SDS011;6987;19.472;-99.276;2023-11-19T09:09:17;3.58;;;1.30;;
13832;SDS011;6987;19.472;-99.276;2023-11-19T09:11:46;2.75;;;1.52;;
13832;SDS011;6987;19.472;-99.276;2023-11-19T09:14:15;3.92;;;1.30;;
13832;SDS011;6987;19.472;-99.276;2023-11-19T09:16:49;1.85;;;1.58;;
13832;SDS011;6987;19.472;-99.276;2023-11-19T09:19:19;2.40;;;1.38;;
13832;SDS011;6987;19.472;-99.276;2023-11-19T09:21:48;2.17;;;1.23;;
13832;SDS011;6987;19.472;-99.276;2023-11-19T09:24:17;2.35;;;1.10;;
13832;SDS011;6987;19.472;-99.276;2023-11-19T09:26:46;5.22;;;1.30;;
13832;SDS011;6987;19.472;-99.276;2023-11-19T09:29:15;4.15;;;1.48;;
13832;SDS011;6987;19.472;-99.276;2023-11-19T09:31:47;4.80;;;1.30;;
13832;SDS011;6987;19.472;-99.276;2023-11-19T09:34:16;2.25;;;1.13;;
13832;SDS011;6987;19.472;-99.276;2023-11-19T09:36:45;2.13;;;1.13;;
13832;SDS011;6987;19.472;-99.276;2023-11-19T09:39:15;3.90;;;1.15;;
13832;SDS011;6987;19.472;-99.276;2023-11-19T09:41:44;3.55;;;1.30;;
13832;SDS011;6987;19.472;-99.276;2023-11-19T09:44:15;2.15;;;1.10;;
13832;SDS011;6987;19.472;-99.276;2023-11-19T09:46:46;1.30;;;1.30;;
13832;SDS011;6987;19.472;-99.276;2023-11-19T09:49:16;3.70;;;1.48;;
13832;SDS011;6987;19.472;-99.276;2023-11-19T09:51:50;4.50;;;1.55;;
13832;SDS011;6987;19.472;-99.276;2023-11-19T09:54:20;2.72;;;1.45;;
13832;SDS011;6987;19.472;-99.276;2023-11-19T09:56:48;3.55;;;1.58;;
13832;SDS011;6987;19.472;-99.276;2023-11-19T09:59:18;2.15;;;1.10;;
13832;SDS011;6987;19.472;-99.276;2023-11-19T10:01:49;7.38;;;1.60;;
13832;SDS011;6987;19.472;-99.276;2023-11-19T10:04:18;4.20;;;1.27;;
13832;SDS011;6987;19.472;-99.276;2023-11-19T10:06:47;2.33;;;1.30;;
13832;SDS011;6987;19.472;-99.276;2023-11-19T10:09:18;5.57;;;1.70;;
13832;SDS011;6987;19.472;-99.276;2023-11-19T10:11:48;1.60;;;1.50;;
13832;SDS011;6987;19.472;-99.276;2023-11-19T10:14:18;4.40;;;1.38;;
13832;SDS011;6987;19.472;-99.276;2023-11-19T10:16:52;4.65;;;1.10;;
13832;SDS011;6987;19.472;-99.276;2023-11-19T10:19:24;2.38;;;1.20;;
13832;SDS011;6987;19.472;-99.276;2023-11-19T10:21:55;1.38;;;1.10;;
13832;SDS011;6987;19.472;-99.276;2023-11-19T10:24:31;2.13;;;1.08;;
13832;SDS011;6987;19.472;-99.276;2023-11-19T10:27:00;3.40;;;1.00;;
13832;SDS011;6987;19.472;-99.276;2023-11-19T10:29:30;2.70;;;1.20;;
13832;SDS011;6987;19.472;-99.276;2023-11-19T10:32:00;2.55;;;1.42;;
13832;SDS011;6987;19.472;-99.276;2023-11-19T10:34:30;2.17;;;1.55;;
13832;SDS011;6987;19.472;-99.276;2023-11-19T10:36:59;4.40;;;1.50;;
13832;SDS011;6987;19.472;-99.276;2023-11-19T10:39:33;3.05;;;1.30;;
13832;SDS011;6987;19.472;-99.276;2023-11-19T10:42:21;1.30;;;1.20;;
13832;SDS011;6987;19.472;-99.276;2023-11-19T10:44:51;4.22;;;1.50;;
13832;SDS011;6987;19.472;-99.276;2023-11-19T10:47:22;3.28;;;1.20;;
13832;SDS011;6987;19.472;-99.276;2023-11-19T10:49:54;1.02;;;1.02;;
13832;SDS011;6987;19.472;-99.276;2023-11-19T10:52:23;2.83;;;1.33;;
13832;SDS011;6987;19.472;-99.276;2023-11-19T10:54:54;4.43;;;1.50;;
13832;SDS011;6987;19.472;-99.276;2023-11-19T10:57:30;1.70;;;1.20;;
13832;SDS011;6987;19.472;-99.276;2023-11-19T11:00:05;7.07;;;1.50;;
13832;SDS011;6987;19.472;-99.276;2023-11-19T11:02:40;1.40;;;1.30;;
13832;SDS011;6987;19.472;-99.276;2023-11-19T11:05:12;2.10;;;1.63;;
13832;SDS011;6987;19.472;-99.276;2023-11-19T11:07:44;1.63;;;1.52;;
13832;SDS011;6987;19.472;-99.276;2023-11-19T11:10:13;1.55;;;1.40;;
13832;SDS011;6987;19.472;-99.276;2023-11-19T11:12:44;1.60;;;1.50;;
13832;SDS011;6987;19.472;-99.276;2023-11-19T11:15:15;5.78;;;1.50;;
13832;SDS011;6987;19.472;-99.276;2023-11-19T11:17:49;4.45;;;1.45;;
13832;SDS011;6987;19.472;-99.276;2023-11-19T11:20:21;2.75;;;1.92;;
13832;SDS011;6987;19.472;-99.276;2023-11-19T11:22:52;7.40;;;1.60;;
13832;SDS011;6987;19.472;-99.276;2023-11-19T11:25:36;1.80;;;1.30;;
13832;SDS011;6987;19.472;-99.276;2023-11-19T11:28:16;1.77;;;1.40;;
13832;SDS011;6987;19.472;-99.276;2023-11-19T11:31:06;1.42;;;1.13;;
13832;SDS011;6987;19.472;-99.276;2023-11-19T11:33:48;2.90;;;1.10;;
13832;SDS011;6987;19.472;-99.276;2023-11-19T11:36:34;1.63;;;1.52;;
13832;SDS011;6987;19.472;-99.276;2023-11-19T11:39:11;1.73;;;1.58;;
13832;SDS011;6987;19.472;-99.276;2023-11-19T11:41:41;3.50;;;1.33;;
13832;SDS011;6987;19.472;-99.276;2023-11-19T11:44:11;4.20;;;1.33;;
13832;SDS011;6987;19.472;-99.276;2023-11-19T11:46:56;1.90;;;1.38;;
13832;SDS011;6987;19.472;-99.276;2023-11-19T11:49:28;1.63;;;1.30;;
13832;SDS011;6987;19.472;-99.276;2023-11-19T11:52:01;2.33;;;1.30;;
13832;SDS011;6987;19.472;-99.276;2023-11-19T11:54:31;1.60;;;1.50;;
13832;SDS011;6987;19.472;-99.276;2023-11-19T11:57:02;2.78;;;1.42;;
13832;SDS011;6987;19.472;-99.276;2023-11-19T12:02:22;1.30;;;1.20;;
13832;SDS011;6987;19.472;-99.276;2023-11-19T12:04:55;1.40;;;1.30;;
13832;SDS011;6987;19.472;-99.276;2023-11-19T12:07:24;2.75;;;1.58;;
13832;SDS011;6987;19.472;-99.276;2023-11-19T12:09:54;2.08;;;1.40;;
13832;SDS011;6987;19.472;-99.276;2023-11-19T12:12:35;2.35;;;1.35;;
13832;SDS011;6987;19.472;-99.276;2023-11-19T12:15:07;1.95;;;1.40;;
13832;SDS011;6987;19.472;-99.276;2023-11-19T12:17:46;3.75;;;1.50;;
13832;SDS011;6987;19.472;-99.276;2023-11-19T12:20:20;2.45;;;1.40;;
13832;SDS011;6987;19.472;-99.276;2023-11-19T12:22:51;1.30;;;1.20;;
13832;SDS011;6987;19.472;-99.276;2023-11-19T12:25:20;1.48;;;1.30;;
13832;SDS011;6987;19.472;-99.276;2023-11-19T12:27:50;2.53;;;1.50;;
13832;SDS011;6987;19.472;-99.276;2023-11-19T12:30:21;3.78;;;1.60;;
13832;SDS011;6987;19.472;-99.276;2023-11-19T12:32:51;5.03;;;1.98;;
13832;SDS011;6987;19.472;-99.276;2023-11-19T12:35:22;2.97;;;1.42;;
13832;SDS011;6987;19.472;-99.276;2023-11-19T12:37:52;2.05;;;1.80;;
13832;SDS011;6987;19.472;-99.276;2023-11-19T12:40:21;3.15;;;1.50;;
13832;SDS011;6987;19.472;-99.276;2023-11-19T12:42:51;4.07;;;1.60;;
13832;SDS011;6987;19.472;-99.276;2023-11-19T12:45:21;3.70;;;1.58;;
13832;SDS011;6987;19.472;-99.276;2023-11-19T12:47:51;9.98;;;1.50;;
13832;SDS011;6987;19.472;-99.276;2023-11-19T12:53:21;3.83;;;1.30;;
13832;SDS011;6987;19.472;-99.276;2023-11-19T12:55:52;2.20;;;1.70;;
13832;SDS011;6987;19.472;-99.276;2023-11-19T12:58:28;2.53;;;1.45;;
13832;SDS011;6987;19.472;-99.276;2023-11-19T13:01:01;2.72;;;1.38;;
13832;SDS011;6987;19.472;-99.276;2023-11-19T13:03:31;4.57;;;1.73;;
13832;SDS011;6987;19.472;-99.276;2023-11-19T13:06:04;3.20;;;1.48;;
13832;SDS011;6987;19.472;-99.276;2023-11-19T13:08:37;4.20;;;1.77;;
13832;SDS011;6987;19.472;-99.276;2023-11-19T13:11:07;5.88;;;1.70;;
13832;SDS011;6987;19.472;-99.276;2023-11-19T13:13:55;5.70;;;1.67;;
13832;SDS011;6987;19.472;-99.276;2023-11-19T13:16:25;9.38;;;2.10;;
13832;SDS011;6987;19.472;-99.276;2023-11-19T13:18:55;6.78;;;1.88;;
13832;SDS011;6987;19.472;-99.276;2023-11-19T13:21:27;7.43;;;1.80;;
13832;SDS011;6987;19.472;-99.276;2023-11-19T13:23:56;3.58;;;1.92;;
13832;SDS011;6987;19.472;-99.276;2023-11-19T13:26:25;4.72;;;1.63;;
13832;SDS011;6987;19.472;-99.276;2023-11-19T13:28:55;6.40;;;1.65;;
13832;SDS011;6987;19.472;-99.276;2023-11-19T13:31:25;6.68;;;1.98;;
13832;SDS011;6987;19.472;-99.276;2023-11-19T13:33:54;13.63;;;2.13;;
13832;SDS011;6987;19.472;-99.276;2023-11-19T13:36:24;5.43;;;2.42;;
13832;SDS011;6987;19.472;-99.276;2023-11-19T13:38:55;4.03;;;2.00;;
13832;SDS011;6987;19.472;-99.276;2023-11-19T13:41:25;2.22;;;1.60;;
13832;SDS011;6987;19.472;-99.276;2023-11-19T13:43:54;5.85;;;1.73;;
13832;SDS011;6987;19.472;-99.276;2023-11-19T13:46:24;3.95;;;2.00;;
13832;SDS011;6987;19.472;-99.276;2023-11-19T13:48:53;6.22;;;1.52;;
13832;SDS011;6987;19.472;-99.276;2023-11-19T13:51:22;5.88;;;1.80;;
13832;SDS011;6987;19.472;-99.276;2023-11-19T13:53:54;3.20;;;1.42;;
13832;SDS011;6987;19.472;-99.276;2023-11-19T13:56:23;4.15;;;1.90;;
13832;SDS011;6987;19.472;-99.276;2023-11-19T13:58:52;1.65;;;1.30;;
13832;SDS011;6987;19.472;-99.276;2023-11-19T14:01:22;2.30;;;1.45;;
13832;SDS011;6987;19.472;-99.276;2023-11-19T14:03:51;1.90;;;1.70;;
13832;SDS011;6987;19.472;-99.276;2023-11-19T14:06:21;1.52;;;1.40;;
13832;SDS011;6987;19.472;-99.276;2023-11-19T14:08:50;2.10;;;1.65;;
13832;SDS011;6987;19.472;-99.276;2023-11-19T14:11:21;1.33;;;1.20;;
13832;SDS011;6987;19.472;-99.276;2023-11-19T14:13:50;4.22;;;1.55;;
13832;SDS011;6987;19.472;-99.276;2023-11-19T14:16:19;4.05;;;1.52;;
13832;SDS011;6987;19.472;-99.276;2023-11-19T14:18:48;6.30;;;1.90;;
13832;SDS011;6987;19.472;-99.276;2023-11-19T14:21:17;7.10;;;2.47;;
13832;SDS011;6987;19.472;-99.276;2023-11-19T14:23:46;4.68;;;2.30;;
13832;SDS011;6987;19.472;-99.276;2023-11-19T14:26:15;6.40;;;1.88;;
13832;SDS011;6987;19.472;-99.276;2023-11-19T14:28:46;3.28;;;2.03;;
13832;SDS011;6987;19.472;-99.276;2023-11-19T14:31:16;4.07;;;2.78;;
13832;SDS011;6987;19.472;-99.276;2023-11-19T14:33:45;5.53;;;2.35;;
13832;SDS011;6987;19.472;-99.276;2023-11-19T14:36:15;2.60;;;2.20;;
13832;SDS011;6987;19.472;-99.276;2023-11-19T14:38:44;14.77;;;2.85;;
13832;SDS011;6987;19.472;-99.276;2023-11-19T14:41:13;4.13;;;2.65;;
13832;SDS011;6987;19.472;-99.276;2023-11-19T14:43:43;7.47;;;3.47;;
13832;SDS011;6987;19.472;-99.276;2023-11-19T14:46:14;10.13;;;4.15;;
13832;SDS011;6987;19.472;-99.276;2023-11-19T14:48:43;6.20;;;3.40;;
13832;SDS011;6987;19.472;-99.276;2023-11-19T14:51:12;6.80;;;3.85;;
13832;SDS011;6987;19.472;-99.276;2023-11-19T14:53:42;12.05;;;4.63;;
13832;SDS011;6987;19.472;-99.276;2023-11-19T14:56:11;15.63;;;4.00;;